sensor_id;sensor_type;location;lat;lon;timestamp;P1;durP1;ratioP1;P2;durP2;ratioP2
61385;SDS011;47256;18.904;-99.054;2023-08-06T00:02:11;12.07;;;6.47;;
61385;SDS011;47256;18.904;-99.054;2023-08-06T00:04:39;5.20;;;4.25;;
61385;SDS011;47256;18.904;-99.054;2023-08-06T00:07:06;9.18;;;4.75;;
61385;SDS011;47256;18.904;-99.054;2023-08-06T00:09:34;10.95;;;4.53;;
61385;SDS011;47256;18.904;-99.054;2023-08-06T00:12:01;8.88;;;4.72;;
61385;SDS011;47256;18.904;-99.054;2023-08-06T00:14:28;10.73;;;4.90;;
61385;SDS011;47256;18.904;-99.054;2023-08-06T00:16:55;10.45;;;5.55;;
61385;SDS011;47256;18.904;-99.054;2023-08-06T00:19:23;9.27;;;5.53;;
61385;SDS011;47256;18.904;-99.054;2023-08-06T00:21:50;11.48;;;5.63;;
61385;SDS011;47256;18.904;-99.054;2023-08-06T00:24:17;9.30;;;5.00;;
61385;SDS011;47256;18.904;-99.054;2023-08-06T00:26:44;10.52;;;4.95;;
61385;SDS011;47256;18.904;-99.054;2023-08-06T00:29:11;7.95;;;5.05;;
61385;SDS011;47256;18.904;-99.054;2023-08-06T00:31:39;11.27;;;4.78;;
61385;SDS011;47256;18.904;-99.054;2023-08-06T00:34:06;13.35;;;5.43;;
61385;SDS011;47256;18.904;-99.054;2023-08-06T00:36:33;15.40;;;6.10;;
61385;SDS011;47256;18.904;-99.054;2023-08-06T00:39:00;8.40;;;5.88;;
61385;SDS011;47256;18.904;-99.054;2023-08-06T00:41:28;11.32;;;5.68;;
61385;SDS011;47256;18.904;-99.054;2023-08-06T00:43:55;8.60;;;6.13;;
61385;SDS011;47256;18.904;-99.054;2023-08-06T00:46:22;11.57;;;5.88;;
61385;SDS011;47256;18.904;-99.054;2023-08-06T00:48:50;7.68;;;5.28;;
61385;SDS011;47256;18.904;-99.054;2023-08-06T00:51:17;9.95;;;5.97;;
61385;SDS011;47256;18.904;-99.054;2023-08-06T00:53:46;9.52;;;5.15;;
61385;SDS011;47256;18.904;-99.054;2023-08-06T00:56:14;10.02;;;5.38;;
61385;SDS011;47256;18.904;-99.054;2023-08-06T00:58:42;12.90;;;5.13;;
61385;SDS011;47256;18.904;-99.054;2023-08-06T01:01:10;7.85;;;4.93;;
61385;SDS011;47256;18.904;-99.054;2023-08-06T01:03:37;9.00;;;5.15;;
61385;SDS011;47256;18.904;-99.054;2023-08-06T01:06:05;10.07;;;5.13;;
61385;SDS011;47256;18.904;-99.054;2023-08-06T01:13:43;10.77;;;4.93;;
61385;SDS011;47256;18.904;-99.054;2023-08-06T01:16:15;9.90;;;5.68;;
61385;SDS011;47256;18.904;-99.054;2023-08-06T01:18:46;9.23;;;4.57;;
61385;SDS011;47256;18.904;-99.054;2023-08-06T01:21:15;8.88;;;4.28;;
61385;SDS011;47256;18.904;-99.054;2023-08-06T01:23:43;6.40;;;4.60;;
61385;SDS011;47256;18.904;-99.054;2023-08-06T01:26:22;7.47;;;3.85;;
61385;SDS011;47256;18.904;-99.054;2023-08-06T01:29:05;8.50;;;4.53;;
61385;SDS011;47256;18.904;-99.054;2023-08-06T01:31:40;6.18;;;4.53;;
61385;SDS011;47256;18.904;-99.054;2023-08-06T01:34:10;8.48;;;4.95;;
61385;SDS011;47256;18.904;-99.054;2023-08-06T01:36:44;8.48;;;4.65;;
61385;SDS011;47256;18.904;-99.054;2023-08-06T01:39:12;8.57;;;4.13;;
61385;SDS011;47256;18.904;-99.054;2023-08-06T01:41:40;8.32;;;4.65;;
61385;SDS011;47256;18.904;-99.054;2023-08-06T01:44:07;6.22;;;4.10;;
61385;SDS011;47256;18.904;-99.054;2023-08-06T01:46:34;11.40;;;3.90;;
61385;SDS011;47256;18.904;-99.054;2023-08-06T01:49:01;7.25;;;4.32;;
61385;SDS011;47256;18.904;-99.054;2023-08-06T01:51:29;7.22;;;3.75;;
61385;SDS011;47256;18.904;-99.054;2023-08-06T01:53:56;8.38;;;4.20;;
61385;SDS011;47256;18.904;-99.054;2023-08-06T01:56:23;7.35;;;3.85;;
61385;SDS011;47256;18.904;-99.054;2023-08-06T01:58:50;8.35;;;3.35;;
61385;SDS011;47256;18.904;-99.054;2023-08-06T02:01:17;9.18;;;4.15;;
61385;SDS011;47256;18.904;-99.054;2023-08-06T02:03:45;7.50;;;3.92;;
61385;SDS011;47256;18.904;-99.054;2023-08-06T02:06:12;7.22;;;3.80;;
61385;SDS011;47256;18.904;-99.054;2023-08-06T02:08:39;5.85;;;3.95;;
61385;SDS011;47256;18.904;-99.054;2023-08-06T02:11:06;8.27;;;3.92;;
61385;SDS011;47256;18.904;-99.054;2023-08-06T02:13:34;5.32;;;4.00;;
61385;SDS011;47256;18.904;-99.054;2023-08-06T02:16:01;7.20;;;3.78;;
61385;SDS011;47256;18.904;-99.054;2023-08-06T02:18:28;6.13;;;4.50;;
61385;SDS011;47256;18.904;-99.054;2023-08-06T02:20:56;5.93;;;3.65;;
61385;SDS011;47256;18.904;-99.054;2023-08-06T02:23:24;5.63;;;3.90;;
61385;SDS011;47256;18.904;-99.054;2023-08-06T02:26:01;7.82;;;4.45;;
61385;SDS011;47256;18.904;-99.054;2023-08-06T02:28:30;6.78;;;4.22;;
61385;SDS011;47256;18.904;-99.054;2023-08-06T02:30:58;7.65;;;4.25;;
61385;SDS011;47256;18.904;-99.054;2023-08-06T02:33:26;7.78;;;4.10;;
61385;SDS011;47256;18.904;-99.054;2023-08-06T02:36:01;7.35;;;3.60;;
61385;SDS011;47256;18.904;-99.054;2023-08-06T02:38:31;6.40;;;3.67;;
61385;SDS011;47256;18.904;-99.054;2023-08-06T02:40:59;6.50;;;3.38;;
61385;SDS011;47256;18.904;-99.054;2023-08-06T02:43:28;5.60;;;4.07;;
61385;SDS011;47256;18.904;-99.054;2023-08-06T02:46:02;11.88;;;5.18;;
61385;SDS011;47256;18.904;-99.054;2023-08-06T02:48:29;6.30;;;3.75;;
61385;SDS011;47256;18.904;-99.054;2023-08-06T02:50:57;8.93;;;5.35;;
61385;SDS011;47256;18.904;-99.054;2023-08-06T02:53:29;9.10;;;4.60;;
61385;SDS011;47256;18.904;-99.054;2023-08-06T02:56:00;8.52;;;5.38;;
61385;SDS011;47256;18.904;-99.054;2023-08-06T02:58:36;10.32;;;4.85;;
61385;SDS011;47256;18.904;-99.054;2023-08-06T03:01:23;5.87;;;4.00;;
61385;SDS011;47256;18.904;-99.054;2023-08-06T03:03:57;7.90;;;4.22;;
61385;SDS011;47256;18.904;-99.054;2023-08-06T03:06:31;7.45;;;4.20;;
61385;SDS011;47256;18.904;-99.054;2023-08-06T03:09:00;8.15;;;3.80;;
61385;SDS011;47256;18.904;-99.054;2023-08-06T03:11:27;5.60;;;3.80;;
61385;SDS011;47256;18.904;-99.054;2023-08-06T03:14:00;6.13;;;3.53;;
61385;SDS011;47256;18.904;-99.054;2023-08-06T03:16:29;6.35;;;3.42;;
61385;SDS011;47256;18.904;-99.054;2023-08-06T03:18:56;5.82;;;3.53;;
61385;SDS011;47256;18.904;-99.054;2023-08-06T03:21:24;12.50;;;4.20;;
61385;SDS011;47256;18.904;-99.054;2023-08-06T03:23:51;12.15;;;3.78;;
61385;SDS011;47256;18.904;-99.054;2023-08-06T03:26:22;8.77;;;4.22;;
61385;SDS011;47256;18.904;-99.054;2023-08-06T03:28:51;7.00;;;4.63;;
61385;SDS011;47256;18.904;-99.054;2023-08-06T03:31:19;9.98;;;4.05;;
61385;SDS011;47256;18.904;-99.054;2023-08-06T03:33:46;7.47;;;4.68;;
61385;SDS011;47256;18.904;-99.054;2023-08-06T03:36:16;6.60;;;3.97;;
61385;SDS011;47256;18.904;-99.054;2023-08-06T03:38:43;8.13;;;5.00;;
61385;SDS011;47256;18.904;-99.054;2023-08-06T03:41:13;6.63;;;4.68;;
61385;SDS011;47256;18.904;-99.054;2023-08-06T03:43:41;11.45;;;4.90;;
61385;SDS011;47256;18.904;-99.054;2023-08-06T03:46:13;8.80;;;5.13;;
61385;SDS011;47256;18.904;-99.054;2023-08-06T03:48:40;8.68;;;5.13;;
61385;SDS011;47256;18.904;-99.054;2023-08-06T03:51:07;9.02;;;4.80;;
61385;SDS011;47256;18.904;-99.054;2023-08-06T03:53:35;9.30;;;5.97;;
61385;SDS011;47256;18.904;-99.054;2023-08-06T03:56:02;8.65;;;5.72;;
61385;SDS011;47256;18.904;-99.054;2023-08-06T03:58:31;14.50;;;6.05;;
61385;SDS011;47256;18.904;-99.054;2023-08-06T04:00:59;11.98;;;6.10;;
61385;SDS011;47256;18.904;-99.054;2023-08-06T04:03:32;9.93;;;6.40;;
61385;SDS011;47256;18.904;-99.054;2023-08-06T04:05:59;10.88;;;6.18;;
61385;SDS011;47256;18.904;-99.054;2023-08-06T04:08:29;13.52;;;6.72;;
61385;SDS011;47256;18.904;-99.054;2023-08-06T04:10:56;10.77;;;6.07;;
61385;SDS011;47256;18.904;-99.054;2023-08-06T04:13:23;13.38;;;6.43;;
61385;SDS011;47256;18.904;-99.054;2023-08-06T04:15:51;7.43;;;6.00;;
61385;SDS011;47256;18.904;-99.054;2023-08-06T04:18:19;14.30;;;6.65;;
61385;SDS011;47256;18.904;-99.054;2023-08-06T04:20:47;9.60;;;5.95;;
61385;SDS011;47256;18.904;-99.054;2023-08-06T04:23:15;11.15;;;6.35;;
61385;SDS011;47256;18.904;-99.054;2023-08-06T04:25:42;12.95;;;6.75;;
61385;SDS011;47256;18.904;-99.054;2023-08-06T04:28:09;17.77;;;6.72;;
61385;SDS011;47256;18.904;-99.054;2023-08-06T04:30:37;10.30;;;6.85;;
61385;SDS011;47256;18.904;-99.054;2023-08-06T04:33:05;10.70;;;6.57;;
61385;SDS011;47256;18.904;-99.054;2023-08-06T04:35:33;9.57;;;6.45;;
61385;SDS011;47256;18.904;-99.054;2023-08-06T04:38:01;11.68;;;7.18;;
61385;SDS011;47256;18.904;-99.054;2023-08-06T04:40:29;13.57;;;6.72;;
61385;SDS011;47256;18.904;-99.054;2023-08-06T04:42:56;12.05;;;6.85;;
61385;SDS011;47256;18.904;-99.054;2023-08-06T04:45:23;10.85;;;6.85;;
61385;SDS011;47256;18.904;-99.054;2023-08-06T04:47:50;12.68;;;6.55;;
61385;SDS011;47256;18.904;-99.054;2023-08-06T04:50:18;10.85;;;6.60;;
61385;SDS011;47256;18.904;-99.054;2023-08-06T04:52:48;12.25;;;6.65;;
61385;SDS011;47256;18.904;-99.054;2023-08-06T04:55:15;11.73;;;6.97;;
61385;SDS011;47256;18.904;-99.054;2023-08-06T04:57:43;11.25;;;7.05;;
61385;SDS011;47256;18.904;-99.054;2023-08-06T05:00:11;8.50;;;6.35;;
61385;SDS011;47256;18.904;-99.054;2023-08-06T05:02:39;8.68;;;6.68;;
61385;SDS011;47256;18.904;-99.054;2023-08-06T05:05:06;15.77;;;8.10;;
61385;SDS011;47256;18.904;-99.054;2023-08-06T05:07:34;9.65;;;6.55;;
61385;SDS011;47256;18.904;-99.054;2023-08-06T05:10:01;11.02;;;7.03;;
61385;SDS011;47256;18.904;-99.054;2023-08-06T05:12:30;12.32;;;8.50;;
61385;SDS011;47256;18.904;-99.054;2023-08-06T05:14:57;14.18;;;8.55;;
61385;SDS011;47256;18.904;-99.054;2023-08-06T05:17:25;15.85;;;8.85;;
61385;SDS011;47256;18.904;-99.054;2023-08-06T05:19:53;15.45;;;8.75;;
61385;SDS011;47256;18.904;-99.054;2023-08-06T05:22:20;10.65;;;8.55;;
61385;SDS011;47256;18.904;-99.054;2023-08-06T05:24:47;13.90;;;6.93;;
61385;SDS011;47256;18.904;-99.054;2023-08-06T05:27:14;11.40;;;7.90;;
61385;SDS011;47256;18.904;-99.054;2023-08-06T05:29:41;10.75;;;7.18;;
61385;SDS011;47256;18.904;-99.054;2023-08-06T05:32:09;13.95;;;8.00;;
61385;SDS011;47256;18.904;-99.054;2023-08-06T05:34:36;9.20;;;6.97;;
61385;SDS011;47256;18.904;-99.054;2023-08-06T05:37:04;11.15;;;6.72;;
61385;SDS011;47256;18.904;-99.054;2023-08-06T05:39:31;7.82;;;6.47;;
61385;SDS011;47256;18.904;-99.054;2023-08-06T05:41:58;7.03;;;5.75;;
61385;SDS011;47256;18.904;-99.054;2023-08-06T05:44:25;8.50;;;5.55;;
61385;SDS011;47256;18.904;-99.054;2023-08-06T05:46:53;11.05;;;6.03;;
61385;SDS011;47256;18.904;-99.054;2023-08-06T05:49:20;7.97;;;5.85;;
61385;SDS011;47256;18.904;-99.054;2023-08-06T05:51:47;7.22;;;5.47;;
61385;SDS011;47256;18.904;-99.054;2023-08-06T05:54:14;9.23;;;5.65;;
61385;SDS011;47256;18.904;-99.054;2023-08-06T05:56:41;9.25;;;5.85;;
61385;SDS011;47256;18.904;-99.054;2023-08-06T05:59:09;12.05;;;6.07;;
61385;SDS011;47256;18.904;-99.054;2023-08-06T06:01:36;10.00;;;6.40;;
61385;SDS011;47256;18.904;-99.054;2023-08-06T06:04:03;6.15;;;5.15;;
61385;SDS011;47256;18.904;-99.054;2023-08-06T06:06:30;8.05;;;5.07;;
61385;SDS011;47256;18.904;-99.054;2023-08-06T06:08:57;8.07;;;5.80;;
61385;SDS011;47256;18.904;-99.054;2023-08-06T06:11:25;8.13;;;5.57;;
61385;SDS011;47256;18.904;-99.054;2023-08-06T06:13:52;6.05;;;5.20;;
61385;SDS011;47256;18.904;-99.054;2023-08-06T06:16:19;7.53;;;4.93;;
61385;SDS011;47256;18.904;-99.054;2023-08-06T06:18:46;9.45;;;5.57;;
61385;SDS011;47256;18.904;-99.054;2023-08-06T06:21:13;8.40;;;5.88;;
61385;SDS011;47256;18.904;-99.054;2023-08-06T06:23:41;8.32;;;5.53;;
61385;SDS011;47256;18.904;-99.054;2023-08-06T06:26:08;6.60;;;5.30;;
61385;SDS011;47256;18.904;-99.054;2023-08-06T06:28:35;6.00;;;5.05;;
61385;SDS011;47256;18.904;-99.054;2023-08-06T06:31:03;6.43;;;5.30;;
61385;SDS011;47256;18.904;-99.054;2023-08-06T06:33:30;7.65;;;5.13;;
61385;SDS011;47256;18.904;-99.054;2023-08-06T06:35:57;7.55;;;5.25;;
61385;SDS011;47256;18.904;-99.054;2023-08-06T06:38:24;6.10;;;5.20;;
61385;SDS011;47256;18.904;-99.054;2023-08-06T06:40:55;7.38;;;5.13;;
61385;SDS011;47256;18.904;-99.054;2023-08-06T06:43:23;9.35;;;5.70;;
61385;SDS011;47256;18.904;-99.054;2023-08-06T06:45:55;8.27;;;5.15;;
61385;SDS011;47256;18.904;-99.054;2023-08-06T06:48:30;7.60;;;5.00;;
61385;SDS011;47256;18.904;-99.054;2023-08-06T06:50:59;7.03;;;4.90;;
61385;SDS011;47256;18.904;-99.054;2023-08-06T06:53:26;6.15;;;5.13;;
61385;SDS011;47256;18.904;-99.054;2023-08-06T06:56:11;5.93;;;5.32;;
61385;SDS011;47256;18.904;-99.054;2023-08-06T06:58:39;11.48;;;4.97;;
61385;SDS011;47256;18.904;-99.054;2023-08-06T07:01:07;6.72;;;5.20;;
61385;SDS011;47256;18.904;-99.054;2023-08-06T07:03:36;10.57;;;6.13;;
61385;SDS011;47256;18.904;-99.054;2023-08-06T07:06:03;8.75;;;6.07;;
61385;SDS011;47256;18.904;-99.054;2023-08-06T07:08:31;7.30;;;6.03;;
61385;SDS011;47256;18.904;-99.054;2023-08-06T07:10:59;8.98;;;5.97;;
61385;SDS011;47256;18.904;-99.054;2023-08-06T07:13:30;11.68;;;6.57;;
61385;SDS011;47256;18.904;-99.054;2023-08-06T07:15:58;8.63;;;5.85;;
61385;SDS011;47256;18.904;-99.054;2023-08-06T07:18:25;8.82;;;5.65;;
61385;SDS011;47256;18.904;-99.054;2023-08-06T07:20:53;6.95;;;5.60;;
61385;SDS011;47256;18.904;-99.054;2023-08-06T07:23:22;9.40;;;5.53;;
61385;SDS011;47256;18.904;-99.054;2023-08-06T07:25:51;8.63;;;5.97;;
61385;SDS011;47256;18.904;-99.054;2023-08-06T07:28:18;9.13;;;5.55;;
61385;SDS011;47256;18.904;-99.054;2023-08-06T07:30:45;7.72;;;5.82;;
61385;SDS011;47256;18.904;-99.054;2023-08-06T07:33:13;7.28;;;5.68;;
61385;SDS011;47256;18.904;-99.054;2023-08-06T07:35:41;7.43;;;5.60;;
61385;SDS011;47256;18.904;-99.054;2023-08-06T07:38:09;5.60;;;4.43;;
61385;SDS011;47256;18.904;-99.054;2023-08-06T07:40:36;8.05;;;5.53;;
61385;SDS011;47256;18.904;-99.054;2023-08-06T07:43:04;7.07;;;5.35;;
61385;SDS011;47256;18.904;-99.054;2023-08-06T07:45:35;9.98;;;6.22;;
61385;SDS011;47256;18.904;-99.054;2023-08-06T07:48:02;6.53;;;5.30;;
61385;SDS011;47256;18.904;-99.054;2023-08-06T07:50:30;6.55;;;5.80;;
61385;SDS011;47256;18.904;-99.054;2023-08-06T07:52:58;10.32;;;5.00;;
61385;SDS011;47256;18.904;-99.054;2023-08-06T07:55:25;8.05;;;4.85;;
61385;SDS011;47256;18.904;-99.054;2023-08-06T07:57:53;6.82;;;4.93;;
61385;SDS011;47256;18.904;-99.054;2023-08-06T08:00:20;8.77;;;5.03;;
61385;SDS011;47256;18.904;-99.054;2023-08-06T08:02:48;13.95;;;6.80;;
61385;SDS011;47256;18.904;-99.054;2023-08-06T08:05:15;9.60;;;6.90;;
61385;SDS011;47256;18.904;-99.054;2023-08-06T08:07:42;9.85;;;6.25;;
61385;SDS011;47256;18.904;-99.054;2023-08-06T08:10:10;16.52;;;5.63;;
61385;SDS011;47256;18.904;-99.054;2023-08-06T08:12:37;12.50;;;6.05;;
61385;SDS011;47256;18.904;-99.054;2023-08-06T08:15:04;9.90;;;5.80;;
61385;SDS011;47256;18.904;-99.054;2023-08-06T08:17:32;10.15;;;6.20;;
61385;SDS011;47256;18.904;-99.054;2023-08-06T08:20:00;8.57;;;6.20;;
61385;SDS011;47256;18.904;-99.054;2023-08-06T08:22:28;8.55;;;5.22;;
61385;SDS011;47256;18.904;-99.054;2023-08-06T08:24:55;12.18;;;6.32;;
61385;SDS011;47256;18.904;-99.054;2023-08-06T08:27:22;7.38;;;5.20;;
61385;SDS011;47256;18.904;-99.054;2023-08-06T08:29:49;9.98;;;6.05;;
61385;SDS011;47256;18.904;-99.054;2023-08-06T08:32:17;11.40;;;6.55;;
61385;SDS011;47256;18.904;-99.054;2023-08-06T08:34:44;11.10;;;6.20;;
61385;SDS011;47256;18.904;-99.054;2023-08-06T08:37:11;8.80;;;5.82;;
61385;SDS011;47256;18.904;-99.054;2023-08-06T08:39:39;5.93;;;5.05;;
61385;SDS011;47256;18.904;-99.054;2023-08-06T08:42:06;9.82;;;5.90;;
61385;SDS011;47256;18.904;-99.054;2023-08-06T08:44:35;8.70;;;5.95;;
61385;SDS011;47256;18.904;-99.054;2023-08-06T08:47:06;12.20;;;6.28;;
61385;SDS011;47256;18.904;-99.054;2023-08-06T08:49:35;8.10;;;6.60;;
61385;SDS011;47256;18.904;-99.054;2023-08-06T08:52:03;7.18;;;6.13;;
61385;SDS011;47256;18.904;-99.054;2023-08-06T08:54:37;7.65;;;6.13;;
61385;SDS011;47256;18.904;-99.054;2023-08-06T08:57:05;8.13;;;5.43;;
61385;SDS011;47256;18.904;-99.054;2023-08-06T08:59:33;8.30;;;5.82;;
61385;SDS011;47256;18.904;-99.054;2023-08-06T09:02:01;7.00;;;5.85;;
61385;SDS011;47256;18.904;-99.054;2023-08-06T09:04:29;6.75;;;4.97;;
61385;SDS011;47256;18.904;-99.054;2023-08-06T09:06:57;5.80;;;4.60;;
61385;SDS011;47256;18.904;-99.054;2023-08-06T09:09:26;6.07;;;4.43;;
61385;SDS011;47256;18.904;-99.054;2023-08-06T09:12:00;5.28;;;4.65;;
61385;SDS011;47256;18.904;-99.054;2023-08-06T09:14:31;10.85;;;5.43;;
61385;SDS011;47256;18.904;-99.054;2023-08-06T09:16:58;6.63;;;4.47;;
61385;SDS011;47256;18.904;-99.054;2023-08-06T09:19:26;5.50;;;4.43;;
61385;SDS011;47256;18.904;-99.054;2023-08-06T09:21:55;6.97;;;4.30;;
61385;SDS011;47256;18.904;-99.054;2023-08-06T09:24:23;10.75;;;3.75;;
61385;SDS011;47256;18.904;-99.054;2023-08-06T09:26:51;7.28;;;3.95;;
61385;SDS011;47256;18.904;-99.054;2023-08-06T09:29:20;4.55;;;3.70;;
61385;SDS011;47256;18.904;-99.054;2023-08-06T09:31:48;5.28;;;4.20;;
61385;SDS011;47256;18.904;-99.054;2023-08-06T09:34:20;10.00;;;6.90;;
61385;SDS011;47256;18.904;-99.054;2023-08-06T09:36:49;12.77;;;5.10;;
61385;SDS011;47256;18.904;-99.054;2023-08-06T09:39:27;7.05;;;4.38;;
61385;SDS011;47256;18.904;-99.054;2023-08-06T09:41:59;9.07;;;4.88;;
61385;SDS011;47256;18.904;-99.054;2023-08-06T09:44:28;5.85;;;4.35;;
61385;SDS011;47256;18.904;-99.054;2023-08-06T09:46:57;7.40;;;4.50;;
61385;SDS011;47256;18.904;-99.054;2023-08-06T09:49:43;8.25;;;5.43;;
61385;SDS011;47256;18.904;-99.054;2023-08-06T09:52:11;8.10;;;5.05;;
61385;SDS011;47256;18.904;-99.054;2023-08-06T09:54:42;6.20;;;4.50;;
61385;SDS011;47256;18.904;-99.054;2023-08-06T09:57:10;10.02;;;4.40;;
61385;SDS011;47256;18.904;-99.054;2023-08-06T09:59:39;5.47;;;4.68;;
61385;SDS011;47256;18.904;-99.054;2023-08-06T10:02:11;7.05;;;4.60;;
61385;SDS011;47256;18.904;-99.054;2023-08-06T10:04:40;6.35;;;4.65;;
61385;SDS011;47256;18.904;-99.054;2023-08-06T10:07:12;5.25;;;4.55;;
61385;SDS011;47256;18.904;-99.054;2023-08-06T10:09:40;10.23;;;4.80;;
61385;SDS011;47256;18.904;-99.054;2023-08-06T10:12:07;7.35;;;4.22;;
61385;SDS011;47256;18.904;-99.054;2023-08-06T10:14:35;7.25;;;4.22;;
61385;SDS011;47256;18.904;-99.054;2023-08-06T10:17:04;6.32;;;4.50;;
61385;SDS011;47256;18.904;-99.054;2023-08-06T10:19:31;5.22;;;4.28;;
61385;SDS011;47256;18.904;-99.054;2023-08-06T10:22:12;6.00;;;3.72;;
61385;SDS011;47256;18.904;-99.054;2023-08-06T10:24:47;5.32;;;3.95;;
61385;SDS011;47256;18.904;-99.054;2023-08-06T10:27:20;5.00;;;3.97;;
61385;SDS011;47256;18.904;-99.054;2023-08-06T10:32:50;4.07;;;3.67;;
61385;SDS011;47256;18.904;-99.054;2023-08-06T10:38:14;6.40;;;4.40;;
61385;SDS011;47256;18.904;-99.054;2023-08-06T10:43:28;7.63;;;4.82;;
61385;SDS011;47256;18.904;-99.054;2023-08-06T10:46:00;4.78;;;3.40;;
61385;SDS011;47256;18.904;-99.054;2023-08-06T10:48:36;8.48;;;4.03;;
61385;SDS011;47256;18.904;-99.054;2023-08-06T10:51:08;5.15;;;4.32;;
61385;SDS011;47256;18.904;-99.054;2023-08-06T10:53:37;3.88;;;3.47;;
61385;SDS011;47256;18.904;-99.054;2023-08-06T10:56:26;5.30;;;4.53;;
61385;SDS011;47256;18.904;-99.054;2023-08-06T10:58:54;3.38;;;3.08;;
61385;SDS011;47256;18.904;-99.054;2023-08-06T11:01:23;4.65;;;3.10;;
61385;SDS011;47256;18.904;-99.054;2023-08-06T11:03:50;5.30;;;3.83;;
61385;SDS011;47256;18.904;-99.054;2023-08-06T11:06:20;4.88;;;3.80;;
61385;SDS011;47256;18.904;-99.054;2023-08-06T11:08:49;11.00;;;4.13;;
61385;SDS011;47256;18.904;-99.054;2023-08-06T11:11:17;4.05;;;3.38;;
61385;SDS011;47256;18.904;-99.054;2023-08-06T11:13:46;7.28;;;3.08;;
61385;SDS011;47256;18.904;-99.054;2023-08-06T11:16:14;5.78;;;3.53;;
61385;SDS011;47256;18.904;-99.054;2023-08-06T11:18:46;4.20;;;3.40;;
61385;SDS011;47256;18.904;-99.054;2023-08-06T11:21:13;4.75;;;3.63;;
61385;SDS011;47256;18.904;-99.054;2023-08-06T11:23:41;5.30;;;3.55;;
61385;SDS011;47256;18.904;-99.054;2023-08-06T11:26:08;4.90;;;3.03;;
61385;SDS011;47256;18.904;-99.054;2023-08-06T11:28:35;6.80;;;3.42;;
61385;SDS011;47256;18.904;-99.054;2023-08-06T11:31:02;4.95;;;3.15;;
61385;SDS011;47256;18.904;-99.054;2023-08-06T11:33:30;10.73;;;3.47;;
61385;SDS011;47256;18.904;-99.054;2023-08-06T11:35:57;5.75;;;2.85;;
61385;SDS011;47256;18.904;-99.054;2023-08-06T11:38:27;4.03;;;2.67;;
61385;SDS011;47256;18.904;-99.054;2023-08-06T11:40:58;3.55;;;2.70;;
61385;SDS011;47256;18.904;-99.054;2023-08-06T11:43:26;2.60;;;2.15;;
61385;SDS011;47256;18.904;-99.054;2023-08-06T11:45:56;3.63;;;2.58;;
61385;SDS011;47256;18.904;-99.054;2023-08-06T11:48:25;6.90;;;2.42;;
61385;SDS011;47256;18.904;-99.054;2023-08-06T11:50:54;6.90;;;2.25;;
61385;SDS011;47256;18.904;-99.054;2023-08-06T11:53:26;2.60;;;2.20;;
61385;SDS011;47256;18.904;-99.054;2023-08-06T11:55:55;5.75;;;2.58;;
61385;SDS011;47256;18.904;-99.054;2023-08-06T11:58:22;2.70;;;2.40;;
61385;SDS011;47256;18.904;-99.054;2023-08-06T12:00:49;2.45;;;2.25;;
61385;SDS011;47256;18.904;-99.054;2023-08-06T12:03:18;6.35;;;2.63;;
61385;SDS011;47256;18.904;-99.054;2023-08-06T12:05:46;5.57;;;2.42;;
61385;SDS011;47256;18.904;-99.054;2023-08-06T12:08:13;5.90;;;2.90;;
61385;SDS011;47256;18.904;-99.054;2023-08-06T12:10:41;5.38;;;1.90;;
61385;SDS011;47256;18.904;-99.054;2023-08-06T12:13:08;3.20;;;2.30;;
61385;SDS011;47256;18.904;-99.054;2023-08-06T12:15:35;6.07;;;2.47;;
61385;SDS011;47256;18.904;-99.054;2023-08-06T12:18:02;5.85;;;2.10;;
61385;SDS011;47256;18.904;-99.054;2023-08-06T12:20:30;6.60;;;2.15;;
61385;SDS011;47256;18.904;-99.054;2023-08-06T12:22:57;6.50;;;2.05;;
61385;SDS011;47256;18.904;-99.054;2023-08-06T12:25:24;4.80;;;1.88;;
61385;SDS011;47256;18.904;-99.054;2023-08-06T12:27:51;2.67;;;2.05;;
61385;SDS011;47256;18.904;-99.054;2023-08-06T12:30:19;3.55;;;2.00;;
61385;SDS011;47256;18.904;-99.054;2023-08-06T12:32:46;4.85;;;2.00;;
61385;SDS011;47256;18.904;-99.054;2023-08-06T12:35:13;3.15;;;2.13;;
61385;SDS011;47256;18.904;-99.054;2023-08-06T12:37:40;7.70;;;1.98;;
61385;SDS011;47256;18.904;-99.054;2023-08-06T12:40:10;4.78;;;1.98;;
61385;SDS011;47256;18.904;-99.054;2023-08-06T12:42:37;5.57;;;2.60;;
61385;SDS011;47256;18.904;-99.054;2023-08-06T12:45:04;4.82;;;2.55;;
61385;SDS011;47256;18.904;-99.054;2023-08-06T12:47:32;4.97;;;1.88;;
61385;SDS011;47256;18.904;-99.054;2023-08-06T12:49:59;3.67;;;2.10;;
61385;SDS011;47256;18.904;-99.054;2023-08-06T12:52:26;2.40;;;2.20;;
61385;SDS011;47256;18.904;-99.054;2023-08-06T12:54:53;6.47;;;2.50;;
61385;SDS011;47256;18.904;-99.054;2023-08-06T12:57:20;6.07;;;2.78;;
61385;SDS011;47256;18.904;-99.054;2023-08-06T12:59:47;3.45;;;2.88;;
61385;SDS011;47256;18.904;-99.054;2023-08-06T13:02:15;5.93;;;3.67;;
61385;SDS011;47256;18.904;-99.054;2023-08-06T13:04:42;6.68;;;5.45;;
61385;SDS011;47256;18.904;-99.054;2023-08-06T13:07:09;7.45;;;5.57;;
61385;SDS011;47256;18.904;-99.054;2023-08-06T13:09:36;7.20;;;6.30;;
61385;SDS011;47256;18.904;-99.054;2023-08-06T13:12:03;12.40;;;6.45;;
61385;SDS011;47256;18.904;-99.054;2023-08-06T13:14:32;7.03;;;6.18;;
61385;SDS011;47256;18.904;-99.054;2023-08-06T13:17:00;7.03;;;6.40;;
61385;SDS011;47256;18.904;-99.054;2023-08-06T13:19:28;7.50;;;6.70;;
61385;SDS011;47256;18.904;-99.054;2023-08-06T13:21:58;8.35;;;6.22;;
61385;SDS011;47256;18.904;-99.054;2023-08-06T13:24:28;10.20;;;7.82;;
61385;SDS011;47256;18.904;-99.054;2023-08-06T13:26:55;8.65;;;7.78;;
61385;SDS011;47256;18.904;-99.054;2023-08-06T13:29:22;8.48;;;6.75;;
61385;SDS011;47256;18.904;-99.054;2023-08-06T13:31:50;9.20;;;7.97;;
61385;SDS011;47256;18.904;-99.054;2023-08-06T13:34:18;18.88;;;9.27;;
61385;SDS011;47256;18.904;-99.054;2023-08-06T13:36:45;12.13;;;8.63;;
61385;SDS011;47256;18.904;-99.054;2023-08-06T13:39:12;10.07;;;8.20;;
61385;SDS011;47256;18.904;-99.054;2023-08-06T13:41:42;11.18;;;7.93;;
61385;SDS011;47256;18.904;-99.054;2023-08-06T13:44:09;12.20;;;8.85;;
61385;SDS011;47256;18.904;-99.054;2023-08-06T13:46:36;12.73;;;8.88;;
61385;SDS011;47256;18.904;-99.054;2023-08-06T13:49:04;10.23;;;8.68;;
61385;SDS011;47256;18.904;-99.054;2023-08-06T13:51:31;15.48;;;8.95;;
61385;SDS011;47256;18.904;-99.054;2023-08-06T13:54:01;10.35;;;9.05;;
61385;SDS011;47256;18.904;-99.054;2023-08-06T13:56:28;8.98;;;8.07;;
61385;SDS011;47256;18.904;-99.054;2023-08-06T13:58:55;10.20;;;8.98;;
61385;SDS011;47256;18.904;-99.054;2023-08-06T14:01:23;9.30;;;8.40;;
61385;SDS011;47256;18.904;-99.054;2023-08-06T14:03:50;10.02;;;9.02;;
61385;SDS011;47256;18.904;-99.054;2023-08-06T14:06:19;15.15;;;9.05;;
61385;SDS011;47256;18.904;-99.054;2023-08-06T14:08:46;12.45;;;10.23;;
61385;SDS011;47256;18.904;-99.054;2023-08-06T14:11:13;11.00;;;9.57;;
61385;SDS011;47256;18.904;-99.054;2023-08-06T14:13:40;12.20;;;9.65;;
61385;SDS011;47256;18.904;-99.054;2023-08-06T14:16:07;10.95;;;9.38;;
61385;SDS011;47256;18.904;-99.054;2023-08-06T14:18:35;14.75;;;9.20;;
61385;SDS011;47256;18.904;-99.054;2023-08-06T14:21:04;12.40;;;9.15;;
61385;SDS011;47256;18.904;-99.054;2023-08-06T14:23:31;14.80;;;9.30;;
61385;SDS011;47256;18.904;-99.054;2023-08-06T14:25:58;9.82;;;8.48;;
61385;SDS011;47256;18.904;-99.054;2023-08-06T14:28:25;8.05;;;6.97;;
61385;SDS011;47256;18.904;-99.054;2023-08-06T14:30:52;6.28;;;5.68;;
61385;SDS011;47256;18.904;-99.054;2023-08-06T14:33:19;5.28;;;4.78;;
61385;SDS011;47256;18.904;-99.054;2023-08-06T14:35:46;6.00;;;5.32;;
61385;SDS011;47256;18.904;-99.054;2023-08-06T14:38:14;9.23;;;4.97;;
61385;SDS011;47256;18.904;-99.054;2023-08-06T14:40:42;8.05;;;5.57;;